Historique des stations

Station météo de Saint-Michel-en-Brenne

Altitude de la station : 93 m







Données météorologiques pour le 28/11/2021
Date
Heure
Températures Humidité Point de rosée Vitesse
du vent
Direction Rafales Windchill Pression Pluviométrie
Cumul
Date
Heure
Températures Humidité Point de rosée Vitesse
du vent
Direction Rafales Windchill Pression Pluviométrie
Cumul
28/11/2021 21:290.7 °C77 %-2.8 °C2 km/hSO32 km/h0.0 1010 hPa-
28/11/2021 21:150.8 °C77 %-2.8 °C3 km/hSO32 km/h0.0 1010 hPa-
28/11/2021 21:001.2 °C77 %-2.2 °C3 km/hOSO32 km/h0.0 1010 hPa-
28/11/2021 20:451.3 °C77 %-2.2 °C-OSO32 km/h1.1 1010 hPa-
28/11/2021 20:301.6 °C78 %-1.7 °C5 km/hOSO32 km/h0.6 1010 hPa-
28/11/2021 20:141.6 °C78 %-1.7 °C2 km/hSSO32 km/h1.1 1010 hPa-
28/11/2021 19:591.8 °C77 %-1.7 °C-SO32 km/h1.7 1010 hPa-
28/11/2021 19:442.2 °C77 %-1.7 °C2 km/hOSO32 km/h1.7 1010 hPa-
28/11/2021 19:292.6 °C76 %-1.1 °C3 km/hNNO32 km/h1.7 1010 hPa-
28/11/2021 19:142.8 °C76 %-1.1 °C-NNO32 km/h2.8 1009 hPa-
28/11/2021 18:592.8 °C76 %-1.1 °C-NNO32 km/h2.8 1009 hPa-
28/11/2021 18:442.9 °C76 %-1.1 °C-NNO32 km/h2.8 1009 hPa-
28/11/2021 18:293.1 °C75 %-1.1 °C5 km/hNO32 km/h2.2 1009 hPa-
28/11/2021 18:143.3 °C74 %-1.1 °C8 km/hNNO32 km/h1.1 1009 hPa-
28/11/2021 17:594.0 °C71 %-0.6 °C13 km/hNNO32 km/h1.1 1009 hPa-
28/11/2021 17:444.7 °C66 %-1.1 °C19 km/hNNO32 km/h1.1 1009 hPa-
28/11/2021 17:294.7 °C69 %-0.6 °C11 km/hO32 km/h2.2 1008 hPa-
28/11/2021 17:144.9 °C70 %0.0 °C6 km/hONO32 km/h3.9 1008 hPa-
28/11/2021 16:595.0 °C71 %0.0 °C2 km/hOSO32 km/h5.0 1008 hPa-
28/11/2021 16:445.1 °C71 %0.0 °C3 km/hOSO32 km/h4.4 1008 hPa-
28/11/2021 16:295.2 °C70 %0.0 °C2 km/hOSO32 km/h5.0 1008 hPa-
28/11/2021 16:145.4 °C69 %0.0 °C3 km/hOSO32 km/h5.0 1008 hPa-
28/11/2021 15:595.4 °C69 %0.0 °C13 km/hNO32 km/h2.8 1008 hPa-
28/11/2021 15:445.3 °C69 %0.0 °C8 km/hOSO32 km/h3.3 1008 hPa-
28/11/2021 15:305.3 °C69 %0.0 °C18 km/hO21 km/h2.2 1008 hPa-
28/11/2021 15:295.3 °C69 %0.0 °C10 km/hO32 km/h3.3 1008 hPa-
28/11/2021 15:155.4 °C69 %0.0 °C14 km/hO19 km/h2.2 1008 hPa-
28/11/2021 15:145.4 °C69 %0.0 °C11 km/hO32 km/h2.8 1008 hPa-
28/11/2021 15:005.6 °C69 %0.0 °C10 km/hO19 km/h3.3 1008 hPa-
28/11/2021 14:595.6 °C69 %0.0 °C10 km/hOSO32 km/h3.3 1008 hPa-
28/11/2021 14:455.3 °C70 %0.0 °C5 km/hO16 km/h5.0 1008 hPa-
28/11/2021 14:445.3 °C69 %0.0 °C11 km/hO32 km/h2.8 1008 hPa-
28/11/2021 14:305.2 °C70 %0.0 °C5 km/hNO19 km/h4.4 1008 hPa-
28/11/2021 14:295.2 °C70 %0.0 °C10 km/hO32 km/h2.8 1008 hPa-
28/11/2021 14:155.1 °C70 %0.0 °C6 km/hO24 km/h3.9 1008 hPa-
28/11/2021 14:145.1 °C70 %0.0 °C11 km/hONO32 km/h2.2 1008 hPa-
28/11/2021 14:005.1 °C71 %0.0 °C6 km/hSO26 km/h3.9 1008 hPa-
28/11/2021 13:595.1 °C71 %0.0 °C6 km/hO32 km/h3.9 1008 hPa-
28/11/2021 13:455.1 °C72 %0.6 °C6 km/hONO23 km/h3.9 1008 hPa-
28/11/2021 13:445.1 °C72 %0.6 °C10 km/hONO32 km/h2.8 1008 hPa-
28/11/2021 13:305.0 °C72 %0.6 °C18 km/hO29 km/h1.7 1008 hPa-
28/11/2021 13:294.9 °C72 %0.6 °C6 km/hOSO32 km/h3.9 1008 hPa-
28/11/2021 13:154.7 °C73 %0.0 °C11 km/hONO24 km/h2.2 1008 hPa-
28/11/2021 13:144.8 °C73 %0.6 °C6 km/hO32 km/h3.9 1008 hPa-
28/11/2021 13:004.7 °C73 %0.0 °C10 km/hO26 km/h2.8 1008 hPa-
28/11/2021 12:594.7 °C73 %0.0 °C10 km/hONO32 km/h2.8 1008 hPa-
28/11/2021 12:454.7 °C73 %0.0 °C5 km/hONO24 km/h3.3 1008 hPa-
28/11/2021 12:444.7 °C73 %0.0 °C8 km/hNO32 km/h2.2 1008 hPa-
28/11/2021 12:304.6 °C73 %0.0 °C16 km/hONO32 km/h1.1 1008 hPa-
28/11/2021 12:154.4 °C74 %0.0 °C16 km/hONO32 km/h1.1 1008 hPa-
28/11/2021 12:004.2 °C75 %0.0 °C19 km/hOSO32 km/h0.6 1008 hPa-
28/11/2021 11:453.9 °C75 %0.0 °C10 km/hO32 km/h1.1 1008 hPa-
28/11/2021 11:293.7 °C75 %-0.6 °C13 km/hONO32 km/h1.1 1008 hPa-
28/11/2021 11:143.4 °C76 %-0.6 °C11 km/hO32 km/h0.6 1008 hPa-
28/11/2021 10:593.3 °C75 %-0.6 °C8 km/hONO32 km/h1.1 1008 hPa-
28/11/2021 10:443.3 °C75 %-0.6 °C13 km/hO32 km/h0.6 1008 hPa-
28/11/2021 10:293.3 °C75 %-0.6 °C11 km/hO32 km/h0.6 1008 hPa-
28/11/2021 10:143.2 °C75 %-0.6 °C13 km/hONO32 km/h0.6 1008 hPa-
28/11/2021 09:593.2 °C75 %-0.6 °C13 km/hOSO32 km/h0.6 1008 hPa-
28/11/2021 09:443.2 °C75 %-0.6 °C10 km/hO32 km/h0.6 1008 hPa-
28/11/2021 09:293.2 °C75 %-0.6 °C6 km/hOSO32 km/h1.7 1008 hPa-
28/11/2021 09:153.2 °C76 %-0.6 °C13 km/hNO23 km/h0.6 1007 hPa-
28/11/2021 09:143.2 °C76 %-0.6 °C13 km/hSO32 km/h0.6 1007 hPa-
28/11/2021 09:003.3 °C76 %-0.6 °C6 km/hNO21 km/h1.7 1007 hPa-
28/11/2021 08:593.3 °C76 %-0.6 °C6 km/hONO32 km/h1.7 1007 hPa-
28/11/2021 08:453.2 °C76 %-0.6 °C11 km/hOSO23 km/h0.6 1007 hPa-
28/11/2021 08:443.2 °C76 %-0.6 °C6 km/hNO32 km/h1.7 1007 hPa-
28/11/2021 08:303.2 °C76 %-0.6 °C3 km/hO21 km/h2.2 1007 hPa-
28/11/2021 08:293.2 °C76 %-0.6 °C8 km/hNO32 km/h1.1 1007 hPa-
28/11/2021 08:153.2 °C77 %-0.6 °C3 km/hONO26 km/h2.2 1007 hPa-
28/11/2021 08:143.2 °C77 %-0.6 °C6 km/hO32 km/h1.7 1007 hPa-
28/11/2021 08:003.1 °C77 %-0.6 °C6 km/hONO18 km/h1.7 1006 hPa-
28/11/2021 07:593.1 °C77 %-0.6 °C6 km/hOSO32 km/h1.7 1007 hPa-
28/11/2021 07:453.1 °C78 %-0.6 °C6 km/hOSO24 km/h1.7 1006 hPa-
28/11/2021 07:433.1 °C78 %-0.6 °C10 km/hO32 km/h0.6 1006 hPa-
28/11/2021 07:303.1 °C78 %-0.6 °C8 km/hONO21 km/h1.1 1006 hPa-
28/11/2021 07:293.1 °C78 %-0.6 °C16 km/hNO32 km/h-0.6 1006 hPa-
28/11/2021 07:153.1 °C78 %-0.6 °C10 km/hO21 km/h0.6 1006 hPa-
28/11/2021 07:143.1 °C78 %-0.6 °C3 km/hONO32 km/h2.2 1006 hPa-
28/11/2021 07:003.2 °C78 %-0.6 °C18 km/hO23 km/h-0.6 1006 hPa-
28/11/2021 06:593.2 °C78 %-0.6 °C3 km/hOSO32 km/h2.2 1006 hPa-
28/11/2021 06:453.1 °C79 %0.0 °C11 km/hO18 km/h0.6 1006 hPa-
28/11/2021 06:443.1 °C79 %0.0 °C10 km/hOSO32 km/h0.6 1006 hPa-
28/11/2021 06:303.2 °C78 %-0.6 °C6 km/hO18 km/h1.7 1006 hPa-
28/11/2021 06:293.2 °C78 %-0.6 °C5 km/hOSO32 km/h2.2 1006 hPa-
28/11/2021 06:153.3 °C78 %0.0 °C3 km/hO23 km/h2.2 1006 hPa-
28/11/2021 06:143.3 °C78 %0.0 °C11 km/hONO32 km/h0.6 1006 hPa-
28/11/2021 06:003.4 °C77 %0.0 °C10 km/hO32 km/h0.6 1006 hPa-
28/11/2021 05:453.5 °C77 %0.0 °C10 km/hSO32 km/h0.6 1006 hPa-
28/11/2021 05:303.7 °C76 %0.0 °C23 km/hO32 km/h-0.6 1006 hPa-
28/11/2021 05:153.7 °C76 %0.0 °C16 km/hONO32 km/h0.6 1005 hPa-
28/11/2021 05:003.8 °C76 %0.0 °C16 km/hO32 km/h0.6 1005 hPa-
28/11/2021 04:443.8 °C76 %0.0 °C8 km/hONO32 km/h1.7 1005 hPa-
28/11/2021 04:293.8 °C76 %0.0 °C16 km/hO32 km/h0.6 1005 hPa-
28/11/2021 04:143.8 °C76 %0.0 °C19 km/hONO32 km/h0.0 1005 hPa-
28/11/2021 03:593.8 °C75 %0.0 °C5 km/hNO32 km/h2.8 1005 hPa-
28/11/2021 03:433.9 °C75 %0.0 °C11 km/hONO32 km/h1.1 1005 hPa-
28/11/2021 03:293.9 °C75 %0.0 °C11 km/hONO32 km/h1.1 1005 hPa-
28/11/2021 03:144.0 °C75 %0.0 °C8 km/hSO32 km/h1.7 1005 hPa-
28/11/2021 02:594.1 °C75 %0.0 °C3 km/hSO32 km/h2.8 1005 hPa-
28/11/2021 02:444.1 °C75 %0.0 °C5 km/hO32 km/h2.8 1005 hPa-
28/11/2021 02:304.2 °C76 %0.6 °C-NNO29 km/h4.4 1005 hPa-
28/11/2021 02:294.1 °C76 %0.0 °C8 km/hNO32 km/h1.7 1005 hPa-
28/11/2021 02:154.1 °C76 %0.0 °C13 km/hONO29 km/h1.1 1005 hPa-
28/11/2021 02:144.1 °C76 %0.0 °C16 km/hSO32 km/h0.6 1005 hPa-
28/11/2021 02:004.1 °C77 %0.6 °C19 km/hNNO27 km/h0.0 1005 hPa-
28/11/2021 01:594.1 °C77 %0.6 °C11 km/hONO32 km/h1.1 1005 hPa-
28/11/2021 01:434.1 °C77 %0.6 °C21 km/hO32 km/h-0.6 1005 hPa-
28/11/2021 01:304.1 °C78 %0.6 °C19 km/hO26 km/h0.0 1005 hPa-
28/11/2021 01:294.1 °C78 %0.6 °C11 km/hSO32 km/h1.1 1005 hPa-
28/11/2021 01:154.2 °C78 %0.6 °C11 km/hO29 km/h1.7 1005 hPa-
28/11/2021 01:144.2 °C78 %0.6 °C10 km/hONO32 km/h2.2 1005 hPa-
28/11/2021 01:004.2 °C79 %1.1 °C5 km/hO23 km/h3.3 1005 hPa-
28/11/2021 00:594.2 °C79 %1.1 °C6 km/hONO32 km/h2.8 1005 hPa-
28/11/2021 00:444.2 °C79 %1.1 °C10 km/hNNO32 km/h2.2 1004 hPa-
28/11/2021 00:304.2 °C80 %1.1 °C6 km/hSO26 km/h2.8 1004 hPa-
28/11/2021 00:294.2 °C80 %1.1 °C10 km/hONO29 km/h2.2 1004 hPa-
28/11/2021 00:154.2 °C80 %1.1 °C11 km/hNO29 km/h1.7 1004 hPa-
28/11/2021 00:144.2 °C80 %1.1 °C10 km/hO29 km/h2.2 1004 hPa-
28/11/2021 00:004.3 °C81 %1.1 °C6 km/hNO31 km/h2.8 1004 hPa-


Minima :

Température : 0.7 °C
Humidité : 66 %
Point de rosée : -2.8 °C
Vent moyen : 2 km/h
Windchill : -0.6
Pression atm. : 1004 hPa
Maxima :

Température : 5.6 °C
Humidité : 81 %
Point de rosée : 1.1 °C
Vent moyen : 23 km/h
Windchill : 5.0
Pression atm. : 1010 hPa
Rafales max : 32 km/h
Cumul de pluie sur 24H : 0 mm

Saint-Michel-en-Brenne est une commune du département Indre (36).
La station météorologique du réseau de l'association la plus proche de Saint-Michel-en-Brenne est celle de Villegouin



Icône Facebook Association Météo Centre Icône Twitter Association Météo Centre Icône Chaîne Youtube Association Météo Centre Icône contact Association Météo Centre Icône Insta Association Météo Centre